Columbia, Louisiana
Current Conditions -  °F | °C
As of 1:53 AM on Thursday 27 Nov 2014 (Local Time) from KMLU Reporting Station
Clear Clear  
Wind Chill: 41°   Ceiling: Unl
Heat Index: 45°   Visibility: 10mi
Dew Point: 33°   Wind: 7mph
Humidity: 63%   Direction: 330°NNW
Pressure: 30.34"   Gusts: NA
Location:  32.11°N, 92.08°W
Report Text: KMLU 270753Z AUTO 33006KT 10SM CLR 07/01 A3034 RMK AO2 SLP272 T00720006
Loading
Personal Weather Stations






























Interactive Weather Map New forecast layout! Learn more

10-Day Weather Forecast

Advertisements
Track Severe Weather on mobile